Terminal Aerodrome Forecast
Issued by NWS Grand Forks, ND

Home | Current Version | Previous Version | Graphics & Text | Print | Product List | Glossary On
Versions: 1 2 3 4 5 6 7 8 9 10 11 12 13 14
222
FTUS43 KFGF 232337
TAFGFK
TAF
KGFK 232337Z 2400/2424 VRB03KT P6SM SCT040
     FM240300 13005KT P6SM SKC
     FM241200 17007KT P6SM SKC
     FM241500 17012KT P6SM FEW250=

USA.gov is the U.S. government's official web portal to all federal, state and local government web resources and services.